Terminal Aerodrome Forecast
Issued by NWS Billings, MT

Home | Current Version | Previous Version | Text Only | Print | Product List | Glossary On
Versions: 1 2 3 4 5 6 7 8 9 10 11 12 13 14 15 16 17 18 19 20 21 22 23 24 25 26 27 28 29 30 31 32
000
FTUS45 KBYZ 301804 AAA
TAFSHR
TAF AMD
KSHR 301804Z 3018/3118 33017KT P6SM VCSH FEW060 BKN120
     FM302100 VRB05KT P6SM VCTS FEW050CB BKN100 OVC200
     FM310400 VRB05KT P6SM VCSH SCT040 BKN090
     FM311100 VRB05KT 3SM SHRA BKN040=

USA.gov is the U.S. government's official web portal to all federal, state and local government web resources and services.